createdAt,value
2022-08-17T00:00:43.429Z,97767.97
2022-08-17T00:03:20.190Z,97762.44
2022-08-17T00:05:55.237Z,97773.13
2022-08-17T00:08:29.910Z,97771.13
2022-08-17T00:11:00.253Z,97768.78
2022-08-17T00:13:32.983Z,97764.66
2022-08-17T00:16:07.050Z,97772.38
2022-08-17T00:18:57.428Z,97764.19
2022-08-17T00:21:26.558Z,97761.19
2022-08-17T00:24:18.375Z,97758.66
2022-08-17T00:26:48.540Z,97755.03
2022-08-17T00:29:19.776Z,97758.34
2022-08-17T00:31:50.118Z,97764.63
2022-08-17T00:34:19.461Z,97751.72
2022-08-17T00:36:48.664Z,97765.06
2022-08-17T00:39:19.261Z,97755.94
2022-08-17T00:41:48.482Z,97757.09
2022-08-17T00:44:17.673Z,97757.09
2022-08-17T00:46:48.057Z,97762.75
2022-08-17T00:49:19.638Z,97762.13
2022-08-17T00:51:53.981Z,97764.00
2022-08-17T00:54:30.957Z,97766.81
2022-08-17T00:57:06.086Z,97766.81
2022-08-17T00:59:40.672Z,97762.41
2022-08-17T01:02:13.698Z,97759.44
2022-08-17T01:04:44.458Z,97766.00
2022-08-17T01:07:15.371Z,97772.13
2022-08-17T01:09:46.016Z,97770.53
2022-08-17T01:12:15.533Z,97770.34
2022-08-17T01:14:44.826Z,97764.56
2022-08-17T01:17:14.315Z,97766.91
2022-08-17T01:19:45.403Z,97768.66
2022-08-17T01:22:23.214Z,97772.63
2022-08-17T01:25:00.213Z,97766.78
2022-08-17T01:27:31.597Z,97772.66
2022-08-17T01:30:56.802Z,97776.91
2022-08-17T01:32:56.673Z,97767.44
2022-08-17T01:35:26.069Z,97774.03
2022-08-17T01:37:56.764Z,97762.19
2022-08-17T01:40:35.274Z,97776.50
2022-08-17T01:43:12.617Z,97764.59
2022-08-17T01:45:46.845Z,97765.81
2022-08-17T01:48:16.559Z,97773.63
2022-08-17T01:50:47.818Z,97762.97
2022-08-17T01:53:23.710Z,97761.41
2022-08-17T01:55:58.053Z,97763.88
2022-08-17T01:58:27.233Z,97758.56
2022-08-17T02:01:00.196Z,97760.72
2022-08-17T02:03:31.430Z,97759.69
2022-08-17T02:06:00.680Z,97760.00
2022-08-17T02:08:38.784Z,97767.38
2022-08-17T02:11:16.737Z,97764.63
2022-08-17T02:13:47.544Z,97764.94
2022-08-17T02:16:24.260Z,97768.97
2022-08-17T02:18:53.505Z,97765.47
2022-08-17T02:21:22.706Z,97766.13
2022-08-17T02:23:53.382Z,97774.94
2022-08-17T02:26:25.596Z,97766.78
2022-08-17T02:28:55.872Z,97765.59
2022-08-17T02:31:25.085Z,97773.97
2022-08-17T02:34:00.226Z,97763.34
2022-08-17T02:36:35.603Z,97766.53
2022-08-17T02:39:09.629Z,97764.28
2022-08-17T02:41:40.152Z,97757.97
2022-08-17T02:44:09.407Z,97764.28
2022-08-17T02:46:38.975Z,97760.78
2022-08-17T02:49:08.173Z,97758.09
2022-08-17T02:51:37.385Z,97767.06
2022-08-17T02:54:40.718Z,97764.78
2022-08-17T02:56:57.313Z,97768.41
2022-08-17T02:59:26.528Z,97764.38
2022-08-17T03:01:55.908Z,97764.56
2022-08-17T03:04:25.610Z,97767.88
2022-08-17T03:06:54.866Z,97765.09
2022-08-17T03:09:25.655Z,97767.16
2022-08-17T03:11:55.905Z,97768.53
2022-08-17T03:14:26.196Z,97767.50
2022-08-17T03:16:55.711Z,97769.31
2022-08-17T03:19:25.443Z,97767.88
2022-08-17T03:21:55.288Z,97768.00
2022-08-17T03:24:28.810Z,97768.16
2022-08-17T03:26:58.288Z,97758.59
2022-08-17T03:29:27.485Z,97754.19
2022-08-17T03:31:56.725Z,97758.41
2022-08-17T03:34:25.974Z,97757.63
2022-08-17T03:36:55.578Z,97764.06
2022-08-17T03:39:26.397Z,97767.66
2022-08-17T03:42:02.632Z,97765.78
2022-08-17T03:44:31.812Z,97768.78
2022-08-17T03:47:18.408Z,97767.75
2022-08-17T03:50:05.033Z,97771.03
2022-08-17T03:52:51.901Z,97769.84
2022-08-17T03:55:40.775Z,97770.38
2022-08-17T03:58:10.164Z,97756.22
2022-08-17T04:00:40.504Z,97762.63
2022-08-17T04:03:09.751Z,97760.13
2022-08-17T04:05:39.700Z,97757.75
2022-08-17T04:08:10.312Z,97757.41
2022-08-17T04:10:45.029Z,97764.19
2022-08-17T04:13:15.065Z,97754.53
2022-08-17T04:15:53.784Z,97751.38
2022-08-17T04:18:23.059Z,97756.16
2022-08-17T04:20:52.246Z,97764.41
2022-08-17T04:23:21.492Z,97758.63
2022-08-17T04:25:53.994Z,97760.13
2022-08-17T04:28:23.183Z,97764.53
2022-08-17T04:30:52.505Z,97767.81
2022-08-17T04:33:25.476Z,97774.72
2022-08-17T04:35:58.145Z,97780.88
2022-08-17T04:38:31.097Z,97782.63
2022-08-17T04:41:20.169Z,97787.22
2022-08-17T04:43:56.121Z,97789.44
2022-08-17T04:46:28.585Z,97790.22
2022-08-17T04:48:59.321Z,97794.06
2022-08-17T04:51:31.165Z,97788.56
2022-08-17T04:54:04.365Z,97786.72
2022-08-17T04:56:36.622Z,97788.94
2022-08-17T04:59:09.769Z,97785.84
2022-08-17T05:01:41.218Z,97786.84
2022-08-17T05:04:32.982Z,97793.84
2022-08-17T05:07:04.754Z,97786.78
2022-08-17T05:09:34.032Z,97792.19
2022-08-17T05:12:06.094Z,97792.66
2022-08-17T05:14:35.340Z,97792.69
2022-08-17T05:17:07.244Z,97794.75
2022-08-17T05:19:41.258Z,97803.16
2022-08-17T05:22:10.414Z,97806.94
2022-08-17T05:24:43.565Z,97806.78
2022-08-17T05:27:21.074Z,97803.31
2022-08-17T05:29:54.146Z,97803.97
2022-08-17T05:32:48.325Z,97810.41
2022-08-17T05:35:16.735Z,97806.88
2022-08-17T05:37:46.000Z,97808.44
2022-08-17T05:40:15.545Z,97810.28
2022-08-17T05:42:46.422Z,97804.13
2022-08-17T05:45:23.615Z,97806.09
2022-08-17T05:48:08.079Z,97806.44
2022-08-17T05:50:49.428Z,97806.50
2022-08-17T05:53:31.793Z,97809.00
2022-08-17T05:56:22.694Z,97806.38
2022-08-17T05:59:20.702Z,97806.66
2022-08-17T06:01:59.541Z,97816.78
2022-08-17T06:04:42.535Z,97804.22
2022-08-17T06:07:21.967Z,97813.88
2022-08-17T06:10:06.707Z,97812.09
2022-08-17T06:12:50.479Z,97822.06
2022-08-17T06:15:40.027Z,97825.97
2022-08-17T06:18:17.199Z,97823.47
2022-08-17T06:20:53.577Z,97824.56
2022-08-17T06:23:35.137Z,97818.19
2022-08-17T06:26:12.693Z,97816.78
2022-08-17T06:28:51.750Z,97817.97
2022-08-17T06:31:29.406Z,97815.81
2022-08-17T06:34:04.389Z,97815.06
2022-08-17T06:36:49.870Z,97805.44
2022-08-17T06:39:43.193Z,97803.75
2022-08-17T06:42:54.982Z,97811.75
2022-08-17T06:45:29.004Z,97825.13
2022-08-17T06:48:11.635Z,97818.44
2022-08-17T06:50:47.918Z,97815.69
2022-08-17T06:53:25.861Z,97811.63
2022-08-17T06:56:01.031Z,97815.59
2022-08-17T06:58:33.366Z,97812.53
2022-08-17T07:01:09.772Z,97819.41
2022-08-17T07:03:54.931Z,97812.44
2022-08-17T07:06:37.731Z,97810.16
2022-08-17T07:09:15.960Z,97809.13
2022-08-17T07:11:53.124Z,97815.94
2022-08-17T07:14:36.832Z,97808.16
2022-08-17T07:17:11.497Z,97803.75
2022-08-17T07:19:45.773Z,97815.50
2022-08-17T07:22:27.963Z,97807.66
2022-08-17T07:25:00.595Z,97805.56
2022-08-17T07:27:32.452Z,97807.13
2022-08-17T07:30:10.617Z,97807.88
2022-08-17T07:32:45.341Z,97808.88
2022-08-17T07:35:23.189Z,97804.09
2022-08-17T07:38:24.307Z,97802.69
2022-08-17T07:41:05.274Z,97814.38
2022-08-17T07:43:38.073Z,97805.66
2022-08-17T07:46:35.800Z,97803.69
2022-08-17T07:49:33.926Z,97812.97
2022-08-17T07:52:24.162Z,97816.22
2022-08-17T07:55:00.124Z,97815.56
2022-08-17T07:57:36.754Z,97815.97
2022-08-17T08:00:24.369Z,97815.06
2022-08-17T08:03:14.854Z,97817.34
2022-08-17T08:05:57.851Z,97817.69
2022-08-17T08:08:34.601Z,97820.66
2022-08-17T08:11:09.313Z,97825.22
2022-08-17T08:13:42.870Z,97831.84
2022-08-17T08:16:30.416Z,97827.31
2022-08-17T08:19:02.535Z,97820.28
2022-08-17T08:21:47.597Z,97817.63
2022-08-17T08:24:44.288Z,97813.81
2022-08-17T08:27:27.840Z,97819.44
2022-08-17T08:30:06.075Z,97820.78
2022-08-17T08:33:13.221Z,97824.81
2022-08-17T08:35:53.122Z,97821.97
2022-08-17T08:38:38.198Z,97822.22
2022-08-17T08:41:34.841Z,97819.00
2022-08-17T08:44:59.822Z,97822.66
2022-08-17T08:47:37.046Z,97827.16
2022-08-17T08:50:37.185Z,97819.56
2022-08-17T08:53:21.951Z,97823.78
2022-08-17T08:55:57.233Z,97820.41
2022-08-17T08:58:42.368Z,97817.50
2022-08-17T09:01:25.365Z,97812.13
2022-08-17T09:04:24.184Z,97823.44
2022-08-17T09:07:10.532Z,97829.66
2022-08-17T09:09:59.005Z,97830.53
2022-08-17T09:12:47.720Z,97832.53
2022-08-17T09:15:27.663Z,97826.97
2022-08-17T09:19:01.700Z,97821.53
2022-08-17T09:21:02.686Z,97823.91
2022-08-17T09:23:38.995Z,97812.03
2022-08-17T09:26:22.137Z,97812.84
2022-08-17T09:28:54.910Z,97822.16
2022-08-17T09:31:35.501Z,97817.13
2022-08-17T09:34:26.974Z,97821.16
2022-08-17T09:37:20.270Z,97832.19
2022-08-17T09:40:10.915Z,97821.59
2022-08-17T09:42:48.670Z,97829.69
2022-08-17T09:45:31.339Z,97818.47
2022-08-17T09:48:18.078Z,97817.66
2022-08-17T09:51:05.455Z,97815.28
2022-08-17T09:53:37.260Z,97809.06
2022-08-17T09:56:25.058Z,97805.72
2022-08-17T09:59:23.142Z,97803.06
2022-08-17T10:02:01.270Z,97798.78
2022-08-17T10:04:48.460Z,97817.41
2022-08-17T10:07:32.673Z,97812.84
2022-08-17T10:10:14.353Z,97813.88
2022-08-17T10:12:53.125Z,97805.19
2022-08-17T10:15:42.450Z,97814.69
2022-08-17T10:18:35.336Z,97815.28
2022-08-17T10:21:26.190Z,97801.13
2022-08-17T10:24:23.939Z,97801.28
2022-08-17T10:26:57.665Z,97797.38
2022-08-17T10:29:47.416Z,97800.50
2022-08-17T10:32:32.774Z,97788.75
2022-08-17T10:35:34.006Z,97800.19
2022-08-17T10:38:32.897Z,97790.09
2022-08-17T10:41:19.082Z,97789.66
2022-08-17T10:44:38.730Z,97789.50
2022-08-17T10:47:07.139Z,97798.19
2022-08-17T10:49:39.399Z,97785.03
2022-08-17T10:52:50.216Z,97785.03
2022-08-17T10:55:21.451Z,97793.34
2022-08-17T10:57:54.905Z,97788.34
2022-08-17T11:00:59.690Z,97783.06
2022-08-17T11:03:29.678Z,97783.03
2022-08-17T11:06:12.752Z,97781.59
2022-08-17T11:09:35.055Z,97790.25
2022-08-17T11:12:25.532Z,97786.81
2022-08-17T11:15:14.073Z,97791.19
2022-08-17T11:18:16.694Z,97784.78
2022-08-17T11:21:23.202Z,97779.38
2022-08-17T11:24:19.098Z,97784.53
2022-08-17T11:27:07.752Z,97775.78
2022-08-17T11:29:59.531Z,97765.28
2022-08-17T11:32:47.425Z,97764.94
2022-08-17T11:35:39.957Z,97760.97
2022-08-17T11:38:25.406Z,97760.03
2022-08-17T11:41:17.171Z,97753.59
2022-08-17T11:44:11.684Z,97741.34
2022-08-17T11:47:26.508Z,97744.28
2022-08-17T11:50:49.962Z,97746.03
2022-08-17T11:54:30.736Z,97747.03
2022-08-17T11:56:51.905Z,97753.13
2022-08-17T12:00:05.500Z,97759.78
2022-08-17T12:02:48.292Z,97744.84
2022-08-17T12:05:34.341Z,97737.69
2022-08-17T12:08:20.445Z,97740.53
2022-08-17T12:11:05.081Z,97741.75
2022-08-17T12:13:51.272Z,97732.66
2022-08-17T12:16:22.888Z,97727.63
2022-08-17T12:18:57.630Z,97721.41
2022-08-17T12:21:48.961Z,97719.44
2022-08-17T12:24:33.148Z,97716.28
2022-08-17T12:27:07.464Z,97711.06
2022-08-17T12:29:39.324Z,97727.19
2022-08-17T12:32:18.757Z,97727.50
2022-08-17T12:34:50.650Z,97714.78
2022-08-17T12:37:26.279Z,97710.50
2022-08-17T12:40:02.023Z,97705.44
2022-08-17T12:42:35.169Z,97707.16
2022-08-17T12:45:22.368Z,97712.34
2022-08-17T12:48:07.922Z,97710.97
2022-08-17T12:50:39.689Z,97726.13
2022-08-17T12:53:13.877Z,97728.03
2022-08-17T12:55:44.419Z,97729.41
2022-08-17T12:58:21.820Z,97735.19
2022-08-17T13:00:57.978Z,97739.28
2022-08-17T13:03:36.277Z,97726.72
2022-08-17T13:06:09.886Z,97727.34
2022-08-17T13:08:43.146Z,97708.16
2022-08-17T13:11:24.280Z,97702.16
2022-08-17T13:13:56.236Z,97696.88
2022-08-17T13:16:27.774Z,97687.16
2022-08-17T13:19:09.898Z,97691.94
2022-08-17T13:21:45.753Z,97686.97
2022-08-17T13:24:20.686Z,97682.63
2022-08-17T13:26:54.458Z,97682.47
2022-08-17T13:29:27.022Z,97683.75
2022-08-17T13:32:14.675Z,97687.78
2022-08-17T13:35:14.845Z,97685.53
2022-08-17T13:38:01.349Z,97691.69
2022-08-17T13:40:38.888Z,97684.09
2022-08-17T13:43:08.966Z,97679.09
2022-08-17T13:45:53.248Z,97679.25
2022-08-17T13:48:32.537Z,97678.63
2022-08-17T13:51:35.141Z,97666.50
2022-08-17T13:54:21.743Z,97674.59
2022-08-17T13:56:59.373Z,97680.19
2022-08-17T13:59:54.749Z,97682.47
2022-08-17T14:02:28.762Z,97682.00
2022-08-17T14:05:00.646Z,97689.47
2022-08-17T14:07:37.641Z,97696.03
2022-08-17T14:10:12.603Z,97692.66
2022-08-17T14:12:44.967Z,97692.41
2022-08-17T14:15:20.856Z,97690.41
2022-08-17T14:17:50.716Z,97702.34
2022-08-17T14:20:24.674Z,97701.25
2022-08-17T14:22:57.098Z,97690.09
2022-08-17T14:25:30.424Z,97692.69
2022-08-17T14:27:59.875Z,97689.59
2022-08-17T14:30:30.233Z,97682.69
2022-08-17T14:33:02.167Z,97678.34
2022-08-17T14:35:31.332Z,97674.31
2022-08-17T14:38:02.222Z,97668.16
2022-08-17T14:40:31.345Z,97668.06
2022-08-17T14:43:01.387Z,97670.66
2022-08-17T14:45:32.675Z,97672.31
2022-08-17T14:48:07.723Z,97671.19
2022-08-17T14:50:40.662Z,97669.50
2022-08-17T14:53:15.368Z,97674.31
2022-08-17T14:55:46.899Z,97668.50
2022-08-17T14:58:16.554Z,97669.47
2022-08-17T15:00:45.749Z,97670.44
2022-08-17T15:03:15.557Z,97667.91
2022-08-17T15:05:45.539Z,97659.47
2022-08-17T15:08:16.669Z,97656.22
2022-08-17T15:10:45.864Z,97661.44
2022-08-17T15:13:20.826Z,97654.03
2022-08-17T15:15:50.894Z,97655.97
2022-08-17T15:18:20.274Z,97659.97
2022-08-17T15:20:50.781Z,97649.94
2022-08-17T15:23:24.042Z,97649.41
2022-08-17T15:25:55.231Z,97645.19
2022-08-17T15:28:25.171Z,97648.28
2022-08-17T15:30:55.340Z,97655.78
2022-08-17T15:33:29.431Z,97661.75
2022-08-17T15:36:01.281Z,97648.25
2022-08-17T15:38:39.193Z,97643.25
2022-08-17T15:41:10.642Z,97647.88
2022-08-17T15:43:39.760Z,97645.16
2022-08-17T15:46:17.407Z,97639.94
2022-08-17T15:48:50.212Z,97649.66
2022-08-17T15:51:24.139Z,97648.09
2022-08-17T15:53:57.330Z,97643.41
2022-08-17T15:56:28.344Z,97644.41
2022-08-17T15:58:57.531Z,97634.69
2022-08-17T16:02:29.866Z,97646.78
2022-08-17T16:04:26.568Z,97632.41
2022-08-17T16:07:00.700Z,97634.63
2022-08-17T16:09:31.286Z,97627.81
2022-08-17T16:12:11.664Z,97617.38
2022-08-17T16:14:41.517Z,97612.75
2022-08-17T16:17:38.975Z,97605.16
2022-08-17T16:20:00.486Z,97607.53
2022-08-17T16:22:36.734Z,97614.94
2022-08-17T16:25:11.762Z,97620.19
2022-08-17T16:27:41.185Z,97618.78
2022-08-17T16:30:17.033Z,97630.13
2022-08-17T16:32:47.479Z,97622.44
2022-08-17T16:35:18.171Z,97613.84
2022-08-17T16:37:47.347Z,97608.66
2022-08-17T16:40:18.583Z,97605.09
2022-08-17T16:42:49.808Z,97609.88
2022-08-17T16:45:22.995Z,97605.75
2022-08-17T16:47:52.503Z,97615.41
2022-08-17T16:50:25.091Z,97620.72
2022-08-17T16:53:03.163Z,97615.66
2022-08-17T16:55:35.987Z,97601.28
2022-08-17T16:58:06.970Z,97610.13
2022-08-17T17:00:36.877Z,97606.72
2022-08-17T17:03:19.615Z,97607.78
2022-08-17T17:06:03.725Z,97601.50
2022-08-17T17:08:44.118Z,97598.22
2022-08-17T17:11:20.174Z,97590.97
2022-08-17T17:13:56.560Z,97594.66
2022-08-17T17:16:38.192Z,97584.94
2022-08-17T17:19:15.075Z,97582.44
2022-08-17T17:21:53.020Z,97576.78
2022-08-17T17:24:29.986Z,97582.72
2022-08-17T17:27:21.742Z,97580.53
2022-08-17T17:30:05.457Z,97581.91
2022-08-17T17:32:41.188Z,97584.34
2022-08-17T17:35:16.798Z,97592.19
2022-08-17T17:37:47.952Z,97601.25
2022-08-17T17:40:23.690Z,97598.97
2022-08-17T17:43:09.273Z,97601.03
2022-08-17T17:45:55.200Z,97598.84
2022-08-17T17:48:24.770Z,97600.66
2022-08-17T17:51:02.510Z,97591.09
2022-08-17T17:53:45.769Z,97594.16
2022-08-17T17:56:42.938Z,97587.88
2022-08-17T17:59:31.458Z,97590.41
2022-08-17T18:02:34.527Z,97591.50
2022-08-17T18:05:17.026Z,97594.53
2022-08-17T18:07:53.317Z,97589.50
2022-08-17T18:10:31.934Z,97593.75
2022-08-17T18:13:12.838Z,97586.63
2022-08-17T18:15:52.367Z,97595.06
2022-08-17T18:18:39.835Z,97599.47
2022-08-17T18:21:16.744Z,97600.31
2022-08-17T18:23:54.665Z,97595.25
2022-08-17T18:26:51.351Z,97589.69
2022-08-17T18:29:34.679Z,97600.84
2022-08-17T18:32:35.043Z,97601.97
2022-08-17T18:35:31.441Z,97606.09
2022-08-17T18:38:22.728Z,97602.97
2022-08-17T18:41:03.679Z,97614.75
2022-08-17T18:43:43.809Z,97615.09
2022-08-17T18:46:29.626Z,97617.38
2022-08-17T18:49:02.886Z,97615.72
2022-08-17T18:51:40.795Z,97614.69
2022-08-17T18:54:20.223Z,97612.81
2022-08-17T18:56:55.509Z,97620.34
2022-08-17T18:59:35.313Z,97616.00
2022-08-17T19:02:44.099Z,97627.81
2022-08-17T19:05:27.258Z,97619.59
2022-08-17T19:08:19.181Z,97619.44
2022-08-17T19:10:51.395Z,97627.34
2022-08-17T19:13:26.802Z,97617.69
2022-08-17T19:16:12.058Z,97615.91
2022-08-17T19:18:49.691Z,97619.78
2022-08-17T19:21:26.606Z,97598.88
2022-08-17T19:24:04.590Z,97592.09
2022-08-17T19:26:53.955Z,97601.25
2022-08-17T19:29:34.227Z,97594.78
2022-08-17T19:32:04.655Z,97590.06
2022-08-17T19:34:36.754Z,97596.88
2022-08-17T19:37:23.295Z,97603.88
2022-08-17T19:40:03.215Z,97600.47
2022-08-17T19:42:47.530Z,97602.53
2022-08-17T19:45:36.097Z,97610.56
2022-08-17T19:48:18.422Z,97615.75
2022-08-17T19:50:57.409Z,97615.25
2022-08-17T19:54:03.882Z,97622.06
2022-08-17T19:56:42.051Z,97621.22
2022-08-17T19:59:21.475Z,97631.47
2022-08-17T20:01:58.172Z,97629.84
2022-08-17T20:04:40.574Z,97640.31
2022-08-17T20:07:19.122Z,97644.34
2022-08-17T20:09:56.812Z,97646.63
2022-08-17T20:12:34.659Z,97668.72
2022-08-17T20:15:09.938Z,97675.59
2022-08-17T20:17:43.493Z,97683.59
2022-08-17T20:20:37.844Z,97692.34
2022-08-17T20:23:22.308Z,97696.50
2022-08-17T20:26:00.347Z,97705.47
2022-08-17T20:28:35.250Z,97703.81
2022-08-17T20:31:45.660Z,97707.66
2022-08-17T20:34:37.382Z,97709.88
2022-08-17T20:37:11.783Z,97707.16
2022-08-17T20:39:45.418Z,97719.41
2022-08-17T20:46:00.600Z,97716.75
2022-08-17T20:48:40.936Z,97727.19
2022-08-17T20:51:28.660Z,97729.25
2022-08-17T20:54:08.428Z,97729.13
2022-08-17T20:56:57.530Z,97726.69
2022-08-17T20:59:58.774Z,97732.16
2022-08-17T21:02:37.470Z,97717.94
2022-08-17T21:05:32.542Z,97720.66
2022-08-17T21:08:17.186Z,97721.66
2022-08-17T21:10:48.088Z,97718.28
2022-08-17T21:14:01.931Z,97732.34
2022-08-17T21:17:06.756Z,97741.13
2022-08-17T21:20:13.551Z,97732.31
2022-08-17T21:23:02.646Z,97732.75
2022-08-17T21:25:56.828Z,97732.28
2022-08-17T21:28:36.983Z,97726.69
2022-08-17T21:31:34.718Z,97724.34
2022-08-17T21:34:30.224Z,97727.75
2022-08-17T21:37:30.693Z,97722.38
2022-08-17T21:40:21.479Z,97728.66
2022-08-17T21:42:55.790Z,97719.78
2022-08-17T21:45:30.179Z,97737.69
2022-08-17T21:48:18.376Z,97728.75
2022-08-17T21:51:01.937Z,97723.13
2022-08-17T21:53:41.160Z,97726.34
2022-08-17T21:56:14.406Z,97713.13
2022-08-17T21:58:48.561Z,97716.28
2022-08-17T22:01:27.395Z,97723.63
2022-08-17T22:04:05.664Z,97731.97
2022-08-17T22:06:40.875Z,97739.91
2022-08-17T22:09:20.071Z,97734.19
2022-08-17T22:12:01.808Z,97729.22
2022-08-17T22:14:53.471Z,97731.28
2022-08-17T22:17:26.665Z,97727.81
2022-08-17T22:20:00.148Z,97728.50
2022-08-17T22:22:59.977Z,97724.59
2022-08-17T22:25:29.597Z,97724.91
2022-08-17T22:28:02.761Z,97722.53
2022-08-17T22:30:37.185Z,97718.47
2022-08-17T22:33:44.507Z,97718.09
2022-08-17T22:36:24.736Z,97717.34
2022-08-17T22:38:56.796Z,97719.97
2022-08-17T22:41:41.250Z,97720.69
2022-08-17T22:44:25.237Z,97721.25
2022-08-17T22:47:03.498Z,97717.94
2022-08-17T22:49:38.549Z,97710.44
2022-08-17T22:52:34.821Z,97704.97
2022-08-17T22:55:30.744Z,97694.91
2022-08-17T22:58:26.937Z,97679.22
2022-08-17T23:00:57.643Z,97669.28
2022-08-17T23:03:28.357Z,97665.38
2022-08-17T23:06:08.035Z,97660.16
2022-08-17T23:08:47.389Z,97666.59
2022-08-17T23:11:16.652Z,97661.03
2022-08-17T23:13:45.994Z,97655.63
2022-08-17T23:16:16.506Z,97643.63
2022-08-17T23:18:49.423Z,97628.09
2022-08-17T23:21:24.077Z,97628.19
2022-08-17T23:23:56.780Z,97637.75
2022-08-17T23:26:27.806Z,97641.94
2022-08-17T23:28:57.501Z,97656.41
2022-08-17T23:31:28.136Z,97674.91
2022-08-17T23:33:57.747Z,97676.41
2022-08-17T23:36:29.508Z,97681.31
2022-08-17T23:38:59.637Z,97685.38
2022-08-17T23:41:34.137Z,97692.28
2022-08-17T23:44:05.662Z,97693.97
2022-08-17T23:46:36.450Z,97699.31
2022-08-17T23:49:06.733Z,97708.28
2022-08-17T23:51:42.636Z,97714.63
2022-08-17T23:54:25.065Z,97725.72
2022-08-17T23:56:54.669Z,97734.47
2022-08-17T23:59:24.795Z,97726.50
